Time;durP1;ratioP1;P1;durP2;ratioP2;P2;SDS_P1;SDS_P2;PMS_P1;PMS_P2;Temp;Humidity;BMP_temperature;BMP_pressure;BME280_temperature;BME280_humidity;BME280_pressure;Samples;Min_cycle;Max_cycle;Signal;HPM_P1;HPM_P2
2022/02/04 00:06:59;;;;;;;34.30;23.17;;;;;;;;;;2057783;28;20178;-58
2022/02/04 00:08:28;;;;;;;33.63;22.83;;;;;;;;;;2057314;28;20303;-56
2022/02/04 00:20:22;;;;;;;32.33;24.27;;;;;;;;;;2060701;28;20158;-55
2022/02/04 00:21:42;;;;;;;35.87;24.17;;;;;;;;;;2060513;28;20181;-55
2022/02/04 00:23:00;;;;;;;33.70;25.20;;;;;;;;;;2057868;28;20671;-51
2022/02/04 00:24:01;;;;;;;38.23;25.03;;;;;;;;;;2054611;28;20185;-55
2022/02/04 00:25:08;;;;;;;31.40;24.47;;;;;;;;;;2059967;28;20197;-55
2022/02/04 00:26:21;;;;;;;32.43;23.70;;;;;;;;;;2059797;28;20483;-55
2022/02/04 00:27:26;;;;;;;31.53;22.27;;;;;;;;;;2056631;28;20173;-57
2022/02/04 00:28:44;;;;;;;33.07;23.77;;;;;;;;;;2074509;22;20281;-58
2022/02/04 00:30:07;;;;;;;32.88;24.83;;;;;;;;;;2078037;28;20641;-54
2022/02/04 00:32:11;;;;;;;38.43;27.33;;;;;;;;;;2080512;28;20172;-55
2022/02/04 00:33:13;;;;;;;33.17;25.03;;;;;;;;;;2080949;28;20180;-57
2022/02/04 00:34:17;;;;;;;32.57;24.83;;;;;;;;;;2080416;28;20223;-51
2022/02/04 00:35:32;;;;;;;36.33;26.07;;;;;;;;;;2080478;28;20204;-56
2022/02/04 00:37:53;;;;;;;30.37;23.43;;;;;;;;;;2080278;28;20195;-53
2022/02/04 00:38:56;;;;;;;35.60;25.60;;;;;;;;;;2074718;28;20201;-52
2022/02/04 00:40:06;;;;;;;33.97;23.87;;;;;;;;;;2081313;28;20255;-57
2022/02/04 00:41:10;;;;;;;34.47;23.73;;;;;;;;;;2081328;28;20160;-59
2022/02/04 00:42:11;;;;;;;32.63;23.93;;;;;;;;;;2081670;28;20385;-61
2022/02/04 00:43:14;;;;;;;36.80;25.60;;;;;;;;;;2081523;28;20192;-59
2022/02/04 00:44:25;;;;;;;32.60;24.87;;;;;;;;;;2081111;28;20183;-55
2022/02/04 00:45:33;;;;;;;37.23;25.67;;;;;;;;;;2073343;28;20287;-56
2022/02/04 00:46:53;;;;;;;35.90;25.15;;;;;;;;;;2080098;28;20638;-57
2022/02/04 00:48:09;;;;;;;35.40;25.50;;;;;;;;;;2080621;28;20271;-54
2022/02/04 00:49:41;;;;;;;34.00;24.80;;;;;;;;;;2080952;28;20234;-57
2022/02/04 00:50:48;;;;;;;35.07;25.87;;;;;;;;;;2079479;28;20192;-55
2022/02/04 00:53:38;;;;;;;35.37;25.63;;;;;;;;;;2081408;28;20522;-54
2022/02/04 00:54:39;;;;;;;34.13;24.93;;;;;;;;;;2087366;28;20195;-56
2022/02/04 00:55:58;;;;;;;36.50;24.37;;;;;;;;;;2086354;28;20167;-56
2022/02/04 00:57:08;;;;;;;36.83;26.27;;;;;;;;;;2082714;28;20263;-52
2022/02/04 01:26:44;;;;;;;35.97;25.93;;;;;;;;;;2082835;28;20310;-56
2022/02/04 01:27:46;;;;;;;41.10;26.43;;;;;;;;;;2082307;28;20196;-55
2022/02/04 01:28:48;;;;;;;39.77;27.67;;;;;;;;;;2083098;28;20216;-56
2022/02/04 01:30:01;;;;;;;35.13;26.10;;;;;;;;;;2082736;28;20186;-57
2022/02/04 01:31:02;;;;;;;39.17;27.67;;;;;;;;;;2082886;28;20226;-60
2022/02/04 01:32:02;;;;;;;34.13;24.80;;;;;;;;;;2083690;28;20195;-52
2022/02/04 01:33:04;;;;;;;37.00;27.37;;;;;;;;;;2082833;28;20203;-58
2022/02/04 01:34:04;;;;;;;37.87;27.37;;;;;;;;;;2083024;28;20680;-58
2022/02/04 01:35:05;;;;;;;38.70;27.63;;;;;;;;;;2083359;28;20207;-56
2022/02/04 01:36:05;;;;;;;38.57;27.17;;;;;;;;;;2082989;28;20177;-61
2022/02/04 01:37:05;;;;;;;39.03;27.47;;;;;;;;;;2081571;28;20251;-61
2022/02/04 01:38:06;;;;;;;36.95;27.45;;;;;;;;;;2082685;28;20164;-58
2022/02/04 01:39:07;;;;;;;36.67;27.37;;;;;;;;;;2082793;28;20198;-61
2022/02/04 01:40:07;;;;;;;35.55;25.60;;;;;;;;;;2082992;28;20271;-58
2022/02/04 01:41:08;;;;;;;37.63;26.00;;;;;;;;;;2082511;28;20184;-60
2022/02/04 01:42:08;;;;;;;37.40;26.63;;;;;;;;;;2082100;28;20173;-61
2022/02/04 01:43:08;;;;;;;34.78;26.42;;;;;;;;;;2083238;28;20525;-61
2022/02/04 01:44:22;;;;;;;40.30;28.73;;;;;;;;;;2082491;28;20180;-60
2022/02/04 01:45:22;;;;;;;39.80;26.93;;;;;;;;;;2083017;28;20266;-62
2022/02/04 01:46:22;;;;;;;38.87;26.97;;;;;;;;;;2082856;28;20186;-59
2022/02/04 01:47:22;;;;;;;37.00;26.33;;;;;;;;;;2081879;28;20615;-59
2022/02/04 01:48:23;;;;;;;38.70;27.98;;;;;;;;;;2082150;28;20267;-56
2022/02/04 01:49:24;;;;;;;39.45;27.33;;;;;;;;;;2080290;28;20168;-59
2022/02/04 01:50:25;;;;;;;37.27;27.27;;;;;;;;;;2081287;28;20313;-61
2022/02/04 01:51:25;;;;;;;37.28;25.83;;;;;;;;;;2079529;28;20172;-57
2022/02/04 01:52:26;;;;;;;38.08;26.08;;;;;;;;;;2080404;28;20207;-57
2022/02/04 01:53:30;;;;;;;37.90;25.83;;;;;;;;;;2079560;28;20168;-60
2022/02/04 01:54:30;;;;;;;35.43;26.53;;;;;;;;;;2081419;28;20191;-62
2022/02/04 01:55:31;;;;;;;36.15;26.77;;;;;;;;;;2081444;28;20172;-60
2022/02/04 01:56:31;;;;;;;36.77;27.00;;;;;;;;;;2078831;28;20169;-58
2022/02/04 01:57:32;;;;;;;36.92;27.50;;;;;;;;;;2080138;28;20176;-60
2022/02/04 01:58:32;;;;;;;38.50;27.08;;;;;;;;;;2078236;28;20181;-57
2022/02/04 01:59:32;;;;;;;37.37;28.13;;;;;;;;;;2080479;28;20268;-58
2022/02/04 02:00:33;;;;;;;36.50;26.83;;;;;;;;;;2081251;28;20176;-59
2022/02/04 02:01:33;;;;;;;36.70;26.63;;;;;;;;;;2080856;28;20171;-59
2022/02/04 02:02:34;;;;;;;37.85;27.27;;;;;;;;;;2080455;28;20215;-60
2022/02/04 02:03:34;;;;;;;38.53;27.53;;;;;;;;;;2072610;28;20254;-59
2022/02/04 02:04:34;;;;;;;34.45;26.33;;;;;;;;;;2079471;28;20184;-60
2022/02/04 02:05:35;;;;;;;38.07;25.53;;;;;;;;;;2080561;28;20188;-56
2022/02/04 02:06:42;;;;;;;35.23;26.50;;;;;;;;;;2080545;28;20177;-59
2022/02/04 02:07:46;;;;;;;34.40;26.43;;;;;;;;;;2087847;28;20175;-58
2022/02/04 02:08:46;;;;;;;37.55;27.48;;;;;;;;;;2074516;28;20681;-56
2022/02/04 02:09:58;;;;;;;33.07;25.20;;;;;;;;;;2082222;28;20168;-57
2022/02/04 02:10:58;;;;;;;33.67;25.83;;;;;;;;;;2079901;28;20192;-55
2022/02/04 02:12:03;;;;;;;35.80;26.43;;;;;;;;;;2082067;28;20215;-54
2022/02/04 02:14:11;;;;;;;35.58;26.30;;;;;;;;;;2081172;28;20208;-53
2022/02/04 02:43:53;;;;;;;35.65;25.33;;;;;;;;;;2079792;28;20164;-55
2022/02/04 02:52:20;;;;;;;34.42;25.83;;;;;;;;;;2077853;28;20215;-53
2022/02/04 02:53:52;;;;;;;35.38;25.60;;;;;;;;;;2082045;28;20168;-62
2022/02/04 02:58:58;;;;;;;34.50;23.67;;;;;;;;;;2076388;28;20200;-61
2022/02/04 03:01:17;;;;;;;31.97;24.73;;;;;;;;;;2077893;28;20160;-56
2022/02/04 03:02:17;;;;;;;32.10;24.83;;;;;;;;;;2080865;28;20259;-56
2022/02/04 03:03:20;;;;;;;33.97;25.83;;;;;;;;;;2077644;28;20259;-52
2022/02/04 03:04:20;;;;;;;31.27;23.83;;;;;;;;;;2081051;28;20551;-52
2022/02/04 03:05:20;;;;;;;33.30;25.83;;;;;;;;;;2080362;28;20188;-58
2022/02/04 03:06:21;;;;;;;33.17;24.85;;;;;;;;;;2080426;28;20210;-57
2022/02/04 03:07:21;;;;;;;32.95;25.02;;;;;;;;;;2076693;28;20186;-57
2022/02/04 03:08:22;;;;;;;31.63;25.08;;;;;;;;;;2079092;28;20247;-52
2022/02/04 03:09:22;;;;;;;30.70;23.73;;;;;;;;;;2080808;28;20255;-56
2022/02/04 03:10:22;;;;;;;34.85;26.02;;;;;;;;;;2072248;28;20185;-56
2022/02/04 03:11:22;;;;;;;30.77;23.63;;;;;;;;;;2080321;28;20239;-57
2022/02/04 03:12:23;;;;;;;33.90;24.57;;;;;;;;;;2080907;28;20243;-56
2022/02/04 03:13:27;;;;;;;35.10;25.38;;;;;;;;;;2080369;28;20180;-52
2022/02/04 03:14:28;;;;;;;33.47;25.80;;;;;;;;;;2081361;28;20184;-58
2022/02/04 03:15:28;;;;;;;32.10;25.15;;;;;;;;;;2080218;28;20267;-58
2022/02/04 03:16:29;;;;;;;33.57;24.93;;;;;;;;;;2080801;28;20270;-61
2022/02/04 03:17:29;;;;;;;33.13;24.88;;;;;;;;;;2080516;28;20180;-62
2022/02/04 03:18:33;;;;;;;31.60;24.63;;;;;;;;;;2079477;28;20200;-61
2022/02/04 03:19:34;;;;;;;33.58;24.35;;;;;;;;;;2080162;28;20191;-60
2022/02/04 03:20:45;;;;;;;33.05;24.67;;;;;;;;;;2081464;28;20683;-59
2022/02/04 03:21:47;;;;;;;29.95;23.33;;;;;;;;;;2080740;28;20169;-59
2022/02/04 03:22:48;;;;;;;30.13;22.08;;;;;;;;;;2080828;28;20163;-59
2022/02/04 03:23:54;;;;;;;34.10;25.33;;;;;;;;;;2079200;28;20267;-59
2022/02/04 03:24:59;;;;;;;31.40;23.33;;;;;;;;;;2072559;28;20215;-58
2022/02/04 03:26:07;;;;;;;31.83;25.00;;;;;;;;;;2080176;28;20735;-57
2022/02/04 03:27:11;;;;;;;31.48;23.85;;;;;;;;;;2080430;28;20184;-55
2022/02/04 03:28:17;;;;;;;29.52;22.98;;;;;;;;;;2080234;28;20234;-57
2022/02/04 03:29:23;;;;;;;30.20;23.60;;;;;;;;;;2080811;28;20192;-55
2022/02/04 03:30:29;;;;;;;30.02;22.95;;;;;;;;;;2079699;28;20184;-52
2022/02/04 03:31:34;;;;;;;33.77;24.93;;;;;;;;;;2080613;28;20640;-55
2022/02/04 03:32:38;;;;;;;32.53;23.63;;;;;;;;;;2078212;28;20179;-53
2022/02/04 03:33:40;;;;;;;31.63;24.60;;;;;;;;;;2079691;28;20291;-59
2022/02/04 03:34:41;;;;;;;28.92;23.00;;;;;;;;;;2080411;28;20192;-58
2022/02/04 03:35:41;;;;;;;33.40;24.02;;;;;;;;;;2080908;28;20525;-60
2022/02/04 03:36:41;;;;;;;31.98;24.10;;;;;;;;;;2079875;28;20703;-58
2022/02/04 03:37:41;;;;;;;28.63;23.40;;;;;;;;;;2079620;28;20180;-54
2022/02/04 03:38:42;;;;;;;32.33;24.05;;;;;;;;;;2077627;28;20200;-57
2022/02/04 03:39:42;;;;;;;29.90;24.07;;;;;;;;;;2079654;28;20237;-57
2022/02/04 03:40:42;;;;;;;31.13;23.67;;;;;;;;;;2079521;28;20176;-55
2022/02/04 03:41:42;;;;;;;28.98;22.38;;;;;;;;;;2080963;28;20164;-51
2022/02/04 03:42:46;;;;;;;33.25;23.90;;;;;;;;;;2073728;28;20199;-54
2022/02/04 03:43:46;;;;;;;30.40;23.30;;;;;;;;;;2080330;28;20521;-58
2022/02/04 03:44:47;;;;;;;29.70;22.47;;;;;;;;;;2079512;28;20238;-58
2022/02/04 03:45:47;;;;;;;27.63;22.20;;;;;;;;;;2071723;28;20742;-62
2022/02/04 03:46:48;;;;;;;28.92;23.40;;;;;;;;;;2075289;28;20331;-57
2022/02/04 03:47:48;;;;;;;30.13;23.85;;;;;;;;;;2087787;28;20317;-53
2022/02/04 03:48:48;;;;;;;29.95;22.98;;;;;;;;;;2072169;28;20208;-56
2022/02/04 03:49:49;;;;;;;29.23;22.17;;;;;;;;;;2071682;28;20176;-60
2022/02/04 03:50:49;;;;;;;29.70;22.47;;;;;;;;;;2080478;28;20545;-56
2022/02/04 03:51:49;;;;;;;29.17;22.52;;;;;;;;;;2079848;28;20207;-61
2022/02/04 03:52:50;;;;;;;28.50;22.85;;;;;;;;;;2080844;28;20192;-59
2022/02/04 03:53:50;;;;;;;29.98;23.45;;;;;;;;;;2080637;28;20195;-58
2022/02/04 03:54:50;;;;;;;29.08;22.50;;;;;;;;;;2080234;28;20633;-59
2022/02/04 03:55:50;;;;;;;27.45;20.48;;;;;;;;;;2079316;28;20188;-57
2022/02/04 03:56:51;;;;;;;28.27;22.20;;;;;;;;;;2080910;28;20598;-60
2022/02/04 03:57:51;;;;;;;27.00;20.88;;;;;;;;;;2080539;28;20168;-55
2022/02/04 03:58:51;;;;;;;27.73;21.35;;;;;;;;;;2088330;28;20183;-58
2022/02/04 03:59:52;;;;;;;27.67;21.40;;;;;;;;;;2085579;28;20191;-58
2022/02/04 04:00:52;;;;;;;28.15;21.88;;;;;;;;;;2080166;28;20226;-60
2022/02/04 04:01:53;;;;;;;29.17;22.15;;;;;;;;;;2080386;28;20175;-55
2022/02/04 04:02:54;;;;;;;29.23;22.23;;;;;;;;;;2079759;28;20176;-50
2022/02/04 04:03:54;;;;;;;26.02;20.65;;;;;;;;;;2081527;28;20198;-62
2022/02/04 04:04:54;;;;;;;26.08;21.92;;;;;;;;;;2087316;28;20197;-58
2022/02/04 04:05:55;;;;;;;28.20;21.45;;;;;;;;;;2080857;28;20180;-57
2022/02/04 04:06:55;;;;;;;27.52;21.25;;;;;;;;;;2080041;28;20381;-57
2022/02/04 04:07:56;;;;;;;27.58;21.70;;;;;;;;;;2080315;28;20173;-55
2022/02/04 04:08:56;;;;;;;28.23;21.43;;;;;;;;;;2088071;28;20624;-54
2022/02/04 04:10:07;;;;;;;28.55;22.08;;;;;;;;;;2088692;28;20182;-54
2022/02/04 04:11:07;;;;;;;27.70;22.07;;;;;;;;;;2081211;28;20160;-52
2022/02/04 04:12:08;;;;;;;31.17;23.33;;;;;;;;;;2079316;28;20674;-62
2022/02/04 04:13:09;;;;;;;27.87;21.30;;;;;;;;;;2080641;28;20177;-59
2022/02/04 04:14:09;;;;;;;28.13;21.42;;;;;;;;;;2079794;28;20287;-61
2022/02/04 04:15:10;;;;;;;27.30;20.67;;;;;;;;;;2080585;28;20656;-53
2022/02/04 04:16:10;;;;;;;28.02;21.33;;;;;;;;;;2080455;28;20168;-56
2022/02/04 04:17:11;;;;;;;28.63;21.57;;;;;;;;;;2078411;28;20185;-52
2022/02/04 04:18:14;;;;;;;29.35;21.92;;;;;;;;;;2080339;28;20176;-55
2022/02/04 04:19:14;;;;;;;27.23;22.23;;;;;;;;;;2078064;28;20188;-58
2022/02/04 04:20:16;;;;;;;27.45;20.40;;;;;;;;;;2080627;28;20230;-57
2022/02/04 04:21:16;;;;;;;25.20;20.17;;;;;;;;;;2080361;28;20222;-57
2022/02/04 04:22:17;;;;;;;27.10;20.97;;;;;;;;;;2080646;28;20184;-55
2022/02/04 04:23:17;;;;;;;26.60;20.98;;;;;;;;;;2079841;28;20164;-58
2022/02/04 04:24:17;;;;;;;27.10;21.17;;;;;;;;;;2080120;28;20180;-59
2022/02/04 04:25:18;;;;;;;28.20;22.60;;;;;;;;;;2088411;28;20199;-59
2022/02/04 04:26:18;;;;;;;25.90;20.80;;;;;;;;;;2078753;28;20219;-58
2022/02/04 04:27:18;;;;;;;24.02;20.42;;;;;;;;;;2074234;28;20256;-56
2022/02/04 04:28:19;;;;;;;27.07;20.57;;;;;;;;;;2084870;28;20171;-57
2022/02/04 04:29:19;;;;;;;27.23;20.30;;;;;;;;;;2088066;28;20210;-56
2022/02/04 04:30:21;;;;;;;25.67;20.73;;;;;;;;;;2077162;28;20851;-58
2022/02/04 04:31:22;;;;;;;24.33;20.70;;;;;;;;;;2077723;28;20274;-58
2022/02/04 04:32:22;;;;;;;28.00;21.90;;;;;;;;;;2078979;28;20187;-60
2022/02/04 04:33:22;;;;;;;24.50;19.73;;;;;;;;;;2079280;28;20267;-60
2022/02/04 04:34:23;;;;;;;25.58;20.27;;;;;;;;;;2078466;28;20240;-61
2022/02/04 04:35:25;;;;;;;25.87;21.00;;;;;;;;;;2082698;28;20180;-52
2022/02/04 04:36:25;;;;;;;25.98;21.05;;;;;;;;;;2079507;28;20187;-52
2022/02/04 04:37:26;;;;;;;25.80;20.63;;;;;;;;;;2079383;28;20259;-57
2022/02/04 04:38:41;;;;;;;28.92;22.65;;;;;;;;;;2079207;28;20233;-59
2022/02/04 04:40:03;;;;;;;29.50;22.10;;;;;;;;;;2081115;28;20180;-54
2022/02/04 04:42:31;;;;;;;30.17;22.80;;;;;;;;;;2080834;28;20160;-53
2022/02/04 04:44:17;;;;;;;28.45;22.15;;;;;;;;;;2076710;28;20281;-55
2022/02/04 05:28:00;;;;;;;34.75;26.98;;;;;;;;;;2080738;28;20637;-60
2022/02/04 05:29:07;;;;;;;32.75;26.50;;;;;;;;;;2080872;28;20219;-57
2022/02/04 05:30:08;;;;;;;32.05;25.15;;;;;;;;;;2081350;28;20243;-56
2022/02/04 05:31:08;;;;;;;34.90;26.92;;;;;;;;;;2080961;28;20652;-56
2022/02/04 05:32:08;;;;;;;33.30;25.63;;;;;;;;;;2081335;28;20188;-53
2022/02/04 05:33:10;;;;;;;33.25;26.00;;;;;;;;;;2080606;28;20213;-55
2022/02/04 05:34:11;;;;;;;33.70;26.45;;;;;;;;;;2081037;28;20215;-62
2022/02/04 05:35:11;;;;;;;31.37;25.23;;;;;;;;;;2081199;28;20191;-55
2022/02/04 05:36:12;;;;;;;38.20;25.75;;;;;;;;;;2073439;28;20197;-60
2022/02/04 05:37:14;;;;;;;32.03;25.17;;;;;;;;;;2080724;28;20687;-58
2022/02/04 05:38:15;;;;;;;31.33;24.90;;;;;;;;;;2079706;28;20223;-59
2022/02/04 05:39:24;;;;;;;31.50;25.35;;;;;;;;;;2077287;28;20177;-60
2022/02/04 05:40:29;;;;;;;31.70;24.75;;;;;;;;;;2078772;28;20209;-61
2022/02/04 05:41:33;;;;;;;31.83;25.23;;;;;;;;;;2081105;28;20169;-59
2022/02/04 05:42:37;;;;;;;29.00;24.77;;;;;;;;;;2080771;28;20191;-54
2022/02/04 05:43:40;;;;;;;31.77;24.52;;;;;;;;;;2081537;28;20545;-56
2022/02/04 05:44:43;;;;;;;31.75;23.30;;;;;;;;;;2082502;28;20192;-57
2022/02/04 05:45:53;;;;;;;32.05;25.23;;;;;;;;;;2082510;28;20179;-52
2022/02/04 05:46:59;;;;;;;32.92;25.92;;;;;;;;;;2082433;28;20179;-52
2022/02/04 05:48:04;;;;;;;31.73;25.10;;;;;;;;;;2073991;28;20180;-57
2022/02/04 05:49:05;;;;;;;31.10;25.83;;;;;;;;;;2074358;28;20204;-56
2022/02/04 05:50:14;;;;;;;31.02;23.58;;;;;;;;;;2081394;28;20279;-58
2022/02/04 05:51:36;;;;;;;30.38;23.60;;;;;;;;;;2071179;28;20587;-56
2022/02/04 05:53:27;;;;;;;30.38;23.98;;;;;;;;;;2086472;28;20167;-57
2022/02/04 05:54:05;;;;;;;26.33;22.83;;;;;;;;;;2080114;28;20215;-60
2022/02/04 05:55:28;;;;;;;29.92;23.38;;;;;;;;;;2091085;28;20191;-53
2022/02/04 05:57:46;;;;;;;26.87;22.07;;;;;;;;;;2082084;28;20212;-60
2022/02/04 06:00:13;;;;;;;26.87;22.53;;;;;;;;;;2082295;28;20188;-52
2022/02/04 06:00:29;;;;;;;29.33;21.57;;;;;;;;;;2077709;28;20283;-56
2022/02/04 06:01:43;;;;;;;27.30;21.80;;;;;;;;;;2082677;28;20642;-61
2022/02/04 06:04:19;;;;;;;25.90;21.38;;;;;;;;;;2082480;28;20176;-56
2022/02/04 06:05:47;;;;;;;27.88;21.15;;;;;;;;;;2069522;28;20625;-57
2022/02/04 06:10:08;;;;;;;27.90;21.90;;;;;;;;;;2091125;28;20187;-58
2022/02/04 06:22:26;;;;;;;26.38;21.27;;;;;;;;;;2081126;28;20188;-59
2022/02/04 06:23:26;;;;;;;24.90;20.08;;;;;;;;;;2081650;28;20208;-60
2022/02/04 06:24:27;;;;;;;24.90;22.05;;;;;;;;;;2079037;28;20193;-59
2022/02/04 06:25:27;;;;;;;25.25;21.58;;;;;;;;;;2079683;28;20168;-57
2022/02/04 06:26:27;;;;;;;26.77;22.00;;;;;;;;;;2081197;28;20172;-58
2022/02/04 06:27:28;;;;;;;29.63;22.50;;;;;;;;;;2081680;28;20203;-58
2022/02/04 06:28:28;;;;;;;28.40;22.57;;;;;;;;;;2079717;28;20188;-53
2022/02/04 06:29:28;;;;;;;26.95;21.38;;;;;;;;;;2081337;28;20164;-56
2022/02/04 06:30:29;;;;;;;25.52;20.95;;;;;;;;;;2090405;22;20180;-60
2022/02/04 06:31:29;;;;;;;22.08;18.75;;;;;;;;;;2094369;28;20190;-59
2022/02/04 06:32:30;;;;;;;24.80;21.08;;;;;;;;;;2097437;28;20260;-58
2022/02/04 06:33:30;;;;;;;25.70;21.48;;;;;;;;;;2096051;28;20678;-55
2022/02/04 06:34:30;;;;;;;23.02;19.83;;;;;;;;;;2097473;28;21000;-58
2022/02/04 06:35:31;;;;;;;23.60;21.00;;;;;;;;;;2096761;28;20216;-55
2022/02/04 06:36:31;;;;;;;24.05;21.42;;;;;;;;;;2092756;28;20172;-57
2022/02/04 06:37:31;;;;;;;26.98;21.73;;;;;;;;;;2096933;28;20167;-58
2022/02/04 06:38:31;;;;;;;25.35;21.58;;;;;;;;;;2096811;28;20652;-58
2022/02/04 06:39:32;;;;;;;26.43;21.93;;;;;;;;;;2095349;28;20243;-60
2022/02/04 06:40:32;;;;;;;28.13;22.20;;;;;;;;;;2092414;28;20706;-58
2022/02/04 06:41:32;;;;;;;27.03;22.20;;;;;;;;;;2090077;28;20171;-58
2022/02/04 06:42:33;;;;;;;27.00;22.47;;;;;;;;;;2089046;28;20226;-54
2022/02/04 06:43:33;;;;;;;24.83;21.50;;;;;;;;;;2088858;28;20178;-56
2022/02/04 06:44:35;;;;;;;24.37;20.30;;;;;;;;;;2091601;28;20209;-61
2022/02/04 06:45:36;;;;;;;28.75;22.25;;;;;;;;;;2088335;28;20253;-59
2022/02/04 06:46:37;;;;;;;26.42;22.20;;;;;;;;;;2088407;28;20190;-60
2022/02/04 06:47:37;;;;;;;29.13;23.45;;;;;;;;;;2089003;28;20171;-60
2022/02/04 06:48:37;;;;;;;26.63;23.05;;;;;;;;;;2088833;28;20233;-59
2022/02/04 06:49:37;;;;;;;30.40;24.48;;;;;;;;;;2089950;28;20229;-58
2022/02/04 06:50:38;;;;;;;27.98;22.10;;;;;;;;;;2083108;28;20232;-55
2022/02/04 06:51:38;;;;;;;27.98;22.27;;;;;;;;;;2088227;28;20483;-62
2022/02/04 06:52:38;;;;;;;30.23;23.02;;;;;;;;;;2087313;28;20183;-59
2022/02/04 06:53:38;;;;;;;27.42;21.08;;;;;;;;;;2088274;28;20178;-58
2022/02/04 06:54:39;;;;;;;29.00;22.67;;;;;;;;;;2088927;28;20191;-57
2022/02/04 06:55:39;;;;;;;29.65;22.05;;;;;;;;;;2089437;28;20199;-62
2022/02/04 06:56:40;;;;;;;27.90;22.10;;;;;;;;;;2089171;28;20176;-58
2022/02/04 06:57:45;;;;;;;26.10;22.40;;;;;;;;;;2089385;28;20290;-62
2022/02/04 06:58:45;;;;;;;26.93;21.00;;;;;;;;;;2083525;28;20183;-60
2022/02/04 06:59:47;;;;;;;26.75;22.35;;;;;;;;;;2083466;28;20233;-62
2022/02/04 07:00:47;;;;;;;28.15;22.33;;;;;;;;;;2096886;28;20191;-63
2022/02/04 07:01:47;;;;;;;28.17;21.52;;;;;;;;;;2088582;28;20183;-60
2022/02/04 07:02:47;;;;;;;27.57;22.10;;;;;;;;;;2088379;28;20164;-62
2022/02/04 07:03:48;;;;;;;28.55;20.98;;;;;;;;;;2092570;28;20262;-62
2022/02/04 07:04:48;;;;;;;23.92;20.63;;;;;;;;;;2088675;28;20184;-59
2022/02/04 07:05:55;;;;;;;25.15;21.42;;;;;;;;;;2094661;28;20184;-57
2022/02/04 07:06:58;;;;;;;23.92;21.02;;;;;;;;;;2089224;28;20163;-58
2022/02/04 07:08:06;;;;;;;23.77;19.77;;;;;;;;;;2088742;28;20219;-59
2022/02/04 07:10:51;;;;;;;25.67;20.08;;;;;;;;;;2089428;28;20179;-60
2022/02/04 07:12:58;;;;;;;26.17;20.88;;;;;;;;;;2087833;28;20278;-61
2022/02/04 07:15:43;;;;;;;27.10;22.40;;;;;;;;;;2084825;28;20187;-61
2022/02/04 07:17:11;;;;;;;23.98;19.95;;;;;;;;;;2084055;28;20172;-61
2022/02/04 07:19:49;;;;;;;23.60;19.25;;;;;;;;;;2088018;28;20170;-61
2022/02/04 07:20:51;;;;;;;23.67;19.83;;;;;;;;;;2086433;28;20693;-62
2022/02/04 07:21:52;;;;;;;22.15;18.10;;;;;;;;;;2083528;28;20174;-59
2022/02/04 07:22:52;;;;;;;22.10;17.65;;;;;;;;;;2088004;28;20664;-61
2022/02/04 07:23:52;;;;;;;23.77;19.80;;;;;;;;;;2080516;28;20181;-61
2022/02/04 07:24:53;;;;;;;23.45;19.50;;;;;;;;;;2087613;28;20258;-60
2022/02/04 07:25:53;;;;;;;23.85;18.65;;;;;;;;;;2085081;28;20677;-61
2022/02/04 07:26:54;;;;;;;23.80;18.10;;;;;;;;;;2077972;28;20196;-61
2022/02/04 07:27:54;;;;;;;20.98;17.73;;;;;;;;;;2080009;28;20175;-61
2022/02/04 07:28:54;;;;;;;21.50;18.90;;;;;;;;;;2082391;28;20753;-61
2022/02/04 07:29:55;;;;;;;20.92;18.08;;;;;;;;;;2088828;28;20547;-61
2022/02/04 07:30:57;;;;;;;21.52;18.45;;;;;;;;;;2088960;28;20203;-61
2022/02/04 07:32:01;;;;;;;21.58;18.52;;;;;;;;;;2089667;28;20223;-60
2022/02/04 07:33:14;;;;;;;19.73;17.63;;;;;;;;;;2089205;28;20180;-60
2022/02/04 07:34:34;;;;;;;19.13;16.90;;;;;;;;;;2089111;28;20195;-61
2022/02/04 07:41:56;;;;;;;18.90;15.48;;;;;;;;;;2077501;28;20271;-60
2022/02/04 07:42:57;;;;;;;17.88;15.98;;;;;;;;;;2071921;28;20184;-61
2022/02/04 07:43:57;;;;;;;19.13;17.02;;;;;;;;;;2066294;28;20585;-60
2022/02/04 07:44:58;;;;;;;19.70;16.23;;;;;;;;;;2073737;28;20181;-61
2022/02/04 07:45:58;;;;;;;18.95;16.35;;;;;;;;;;2080332;28;20533;-62
2022/02/04 07:46:59;;;;;;;16.73;14.77;;;;;;;;;;2079801;28;20180;-60
2022/02/04 07:47:59;;;;;;;17.60;14.88;;;;;;;;;;2082695;28;20881;-61
2022/02/04 07:48:59;;;;;;;17.60;15.70;;;;;;;;;;2089327;28;20321;-62
2022/02/04 07:50:00;;;;;;;18.13;15.77;;;;;;;;;;2089335;28;20179;-61
2022/02/04 07:51:00;;;;;;;15.75;14.10;;;;;;;;;;2088807;28;20204;-58
2022/02/04 07:52:00;;;;;;;17.67;15.77;;;;;;;;;;2088500;28;20190;-59
2022/02/04 07:53:01;;;;;;;17.45;15.48;;;;;;;;;;2089218;28;20175;-59
2022/02/04 07:54:01;;;;;;;16.35;14.65;;;;;;;;;;2089461;28;20271;-59
2022/02/04 07:55:04;;;;;;;16.33;14.60;;;;;;;;;;2088039;28;20206;-60
2022/02/04 07:56:04;;;;;;;16.38;14.68;;;;;;;;;;2088748;28;20255;-58
2022/02/04 07:57:05;;;;;;;19.27;15.43;;;;;;;;;;2080479;28;20250;-57
2022/02/04 07:58:05;;;;;;;17.20;15.23;;;;;;;;;;2082767;28;20179;-61
2022/02/04 07:59:08;;;;;;;17.92;15.13;;;;;;;;;;2088962;28;20254;-61
2022/02/04 08:00:10;;;;;;;16.85;14.73;;;;;;;;;;2088330;28;20163;-56
2022/02/04 08:01:19;;;;;;;19.10;15.15;;;;;;;;;;2088521;28;20231;-62
2022/02/04 08:02:20;;;;;;;19.00;16.20;;;;;;;;;;2096532;28;20170;-59
2022/02/04 08:03:31;;;;;;;18.80;14.93;;;;;;;;;;2096344;28;20646;-61
2022/02/04 08:04:34;;;;;;;14.38;12.88;;;;;;;;;;2089184;28;20178;-63
2022/02/04 08:05:34;;;;;;;15.82;14.25;;;;;;;;;;2087941;28;20176;-59
2022/02/04 08:06:40;;;;;;;19.40;13.93;;;;;;;;;;2089119;28;20690;-62
2022/02/04 08:08:04;;;;;;;18.08;14.52;;;;;;;;;;2088259;28;20294;-58
2022/02/04 08:09:15;;;;;;;16.42;13.60;;;;;;;;;;2084489;28;20202;-59
2022/02/04 08:14:58;;;;;;;14.45;12.95;;;;;;;;;;2086544;28;20175;-59
2022/02/04 08:21:32;;;;;;;16.20;13.55;;;;;;;;;;2084725;28;20223;-60
2022/02/04 08:24:58;;;;;;;14.52;13.00;;;;;;;;;;2089102;28;20640;-61
2022/02/04 08:30:19;;;;;;;14.10;12.70;;;;;;;;;;2088528;28;20211;-60
2022/02/04 08:36:25;;;;;;;14.65;11.68;;;;;;;;;;2082128;28;20180;-61
2022/02/04 08:37:47;;;;;;;13.10;11.80;;;;;;;;;;2083165;28;20184;-58
2022/02/04 08:39:02;;;;;;;12.73;11.43;;;;;;;;;;2089258;28;20309;-58
2022/02/04 08:48:13;;;;;;;13.88;10.88;;;;;;;;;;2087429;28;20186;-62
2022/02/04 08:54:45;;;;;;;12.05;10.85;;;;;;;;;;2088219;28;20670;-60
2022/02/04 08:55:50;;;;;;;11.43;10.30;;;;;;;;;;2083398;28;20682;-60
2022/02/04 08:57:04;;;;;;;10.32;9.32;;;;;;;;;;2087815;28;20639;-61
2022/02/04 08:58:22;;;;;;;11.40;9.88;;;;;;;;;;2087677;28;20233;-60
2022/02/04 08:59:53;;;;;;;11.45;10.40;;;;;;;;;;2088278;28;20583;-60
2022/02/04 09:02:05;;;;;;;11.18;9.88;;;;;;;;;;2088615;28;20191;-59
2022/02/04 09:03:14;;;;;;;11.43;9.77;;;;;;;;;;2089205;28;20167;-59
2022/02/04 09:04:18;;;;;;;11.25;10.13;;;;;;;;;;2084562;28;20207;-58
2022/02/04 09:05:18;;;;;;;11.32;9.73;;;;;;;;;;2087564;28;20512;-60
2022/02/04 09:06:23;;;;;;;10.85;9.75;;;;;;;;;;2089202;28;20174;-61
2022/02/04 09:07:27;;;;;;;11.32;10.13;;;;;;;;;;2088068;28;20186;-61
2022/02/04 09:08:30;;;;;;;10.02;9.20;;;;;;;;;;2090279;28;20187;-60
2022/02/04 09:09:55;;;;;;;11.70;9.75;;;;;;;;;;2090403;28;20199;-59
2022/02/04 09:10:53;;;;;;;9.20;8.35;;;;;;;;;;2081619;28;20259;-60
2022/02/04 09:12:03;;;;;;;9.43;8.48;;;;;;;;;;2089541;28;20186;-58
2022/02/04 09:16:58;;;;;;;10.48;9.23;;;;;;;;;;2081135;28;20176;-61
2022/02/04 09:19:07;;;;;;;9.63;8.68;;;;;;;;;;2090114;28;20172;-56
2022/02/04 09:20:24;;;;;;;9.13;8.23;;;;;;;;;;2090241;28;20163;-62
2022/02/04 09:21:37;;;;;;;9.07;8.18;;;;;;;;;;2091061;28;20249;-61
2022/02/04 09:23:38;;;;;;;8.85;8.05;;;;;;;;;;2086170;28;20176;-58
2022/02/04 09:24:38;;;;;;;8.85;7.93;;;;;;;;;;2090919;28;20215;-61
2022/02/04 09:25:39;;;;;;;8.40;7.70;;;;;;;;;;2090277;28;20167;-61
2022/02/04 09:26:40;;;;;;;8.90;8.00;;;;;;;;;;2091096;28;20265;-60
2022/02/04 09:27:41;;;;;;;8.65;7.95;;;;;;;;;;2090154;28;20207;-59
2022/02/04 09:28:41;;;;;;;8.93;8.18;;;;;;;;;;2090264;28;20716;-59
2022/02/04 09:29:41;;;;;;;9.02;8.20;;;;;;;;;;2089464;28;20571;-58
2022/02/04 09:30:42;;;;;;;8.57;7.57;;;;;;;;;;2090854;28;20294;-59
2022/02/04 09:31:42;;;;;;;7.78;7.07;;;;;;;;;;2086960;28;20258;-60
2022/02/04 09:32:43;;;;;;;8.15;7.38;;;;;;;;;;2081841;28;20219;-60
2022/02/04 09:33:43;;;;;;;9.10;8.10;;;;;;;;;;2086237;28;20633;-60
2022/02/04 09:34:43;;;;;;;8.23;7.43;;;;;;;;;;2090887;28;20199;-58
2022/02/04 09:35:43;;;;;;;8.07;7.15;;;;;;;;;;2083427;28;20169;-61
2022/02/04 09:36:44;;;;;;;8.63;7.90;;;;;;;;;;2090004;28;20174;-61
2022/02/04 09:37:46;;;;;;;9.48;7.43;;;;;;;;;;2085119;28;20175;-62
2022/02/04 09:38:47;;;;;;;8.15;7.35;;;;;;;;;;2089979;28;20274;-58
2022/02/04 09:39:47;;;;;;;8.23;7.55;;;;;;;;;;2084292;28;20168;-60
2022/02/04 09:40:47;;;;;;;7.38;6.65;;;;;;;;;;2089338;28;20187;-61